THY1VB LTFE-LTFM
Flight info
| Callsign | THY1VB |
|---|---|
| Flight time | N/A |
| Altitude | 40000 |
| Route | AKBUK UN618 DUGLA/N0484F410 UZ713 INBET |
| Aircraft | A359/H-SDE2E3GHIJ3J4J5LM1ORWXY/LB1D1 |
Departure
| Time | 2026-04-26 14:13 |
|---|---|
| Airport | Milas Bodrum International Airport (LTFE) |
Arrival
| Time | N/A |
|---|---|
| Airport | İstanbul Airport (LTFM) |
| Time | Latitude | Longitude | Altitude | Speed | Heading |
|---|---|---|---|---|---|
| 2026-04-26 13:41 | 37.24375 | 27.67898 | 31 ft | 0 kts | 198° |
| 2026-04-26 14:02 | 37.24387 | 27.67903 | 20 ft | 3 kts | 192° |
| 2026-04-26 14:02 | 37.24409 | 27.67905 | 10 ft | 3 kts | 172° |
| 2026-04-26 14:02 | 37.24430 | 27.67898 | 29 ft | 3 kts | 145° |
| 2026-04-26 14:02 | 37.24445 | 27.67879 | 29 ft | 3 kts | 110° |
| 2026-04-26 14:03 | 37.24446 | 27.67875 | 28 ft | 0 kts | 107° |
| 2026-04-26 14:09 | 37.24443 | 27.67889 | 31 ft | 7 kts | 107° |
| 2026-04-26 14:09 | 37.24435 | 27.68018 | 32 ft | 17 kts | 62° |
| 2026-04-26 14:10 | 37.24451 | 27.68034 | 32 ft | 3 kts | 28° |
| 2026-04-26 14:10 | 37.24511 | 27.68068 | 31 ft | 14 kts | 21° |
| 2026-04-26 14:10 | 37.24612 | 27.68106 | 31 ft | 16 kts | 17° |
| 2026-04-26 14:10 | 37.24716 | 27.68110 | 31 ft | 11 kts | 321° |
| 2026-04-26 14:11 | 37.24747 | 27.68042 | 32 ft | 0 kts | 286° |
| 2026-04-26 14:12 | 37.24790 | 27.67865 | 32 ft | 57 kts | 287° |
| 2026-04-26 14:13 | 37.25294 | 27.65758 | 152 ft | 177 kts | 282° |
| 2026-04-26 14:13 | 37.25634 | 27.64342 | 1041 ft | 161 kts | 282° |
| 2026-04-26 14:13 | 37.25970 | 27.62999 | 1739 ft | 165 kts | 286° |
| 2026-04-26 14:14 | 37.26335 | 27.61613 | 2216 ft | 169 kts | 287° |
| 2026-04-26 14:14 | 37.26713 | 27.60186 | 2664 ft | 179 kts | 287° |
| 2026-04-26 14:14 | 37.27090 | 27.58607 | 2923 ft | 199 kts | 285° |
| 2026-04-26 14:14 | 37.27477 | 27.56846 | 3216 ft | 220 kts | 286° |
| 2026-04-26 14:15 | 37.27911 | 27.54908 | 3499 ft | 241 kts | 286° |
| 2026-04-26 14:15 | 37.28394 | 27.52811 | 3903 ft | 256 kts | 287° |
| 2026-04-26 14:15 | 37.28901 | 27.50643 | 4561 ft | 260 kts | 289° |
| 2026-04-26 14:15 | 37.29445 | 27.48473 | 5244 ft | 262 kts | 293° |
| 2026-04-26 14:16 | 37.30400 | 27.46528 | 5806 ft | 264 kts | 317° |
| 2026-04-26 14:16 | 37.31947 | 27.45307 | 6351 ft | 266 kts | 343° |
| 2026-04-26 14:16 | 37.33788 | 27.45020 | 6908 ft | 268 kts | 2° |
| 2026-04-26 14:16 | 37.35660 | 27.45130 | 7573 ft | 272 kts | 4° |
| 2026-04-26 14:17 | 37.37538 | 27.45271 | 8179 ft | 275 kts | 3° |
| 2026-04-26 14:17 | 37.39464 | 27.45407 | 8834 ft | 278 kts | 3° |
| 2026-04-26 14:17 | 37.41403 | 27.45534 | 9474 ft | 281 kts | 3° |
| 2026-04-26 14:17 | 37.43374 | 27.45657 | 10099 ft | 285 kts | 3° |
| 2026-04-26 14:18 | 37.45405 | 27.45779 | 10458 ft | 299 kts | 3° |
| 2026-04-26 14:18 | 37.47540 | 27.45908 | 10747 ft | 314 kts | 3° |
| 2026-04-26 14:18 | 37.49772 | 27.45840 | 10996 ft | 329 kts | 352° |
| 2026-04-26 14:18 | 37.52027 | 27.45080 | 11243 ft | 342 kts | 341° |
| 2026-04-26 14:19 | 37.54273 | 27.43949 | 11564 ft | 352 kts | 336° |
| 2026-04-26 14:19 | 37.55753 | 27.43092 | 11850 ft | 355 kts | 335° |
| 2026-04-26 14:19 | 37.58731 | 27.41266 | 12602 ft | 357 kts | 334° |
| 2026-04-26 14:19 | 37.60257 | 27.40458 | 12919 ft | 359 kts | 341° |
| 2026-04-26 14:20 | 37.62685 | 27.39751 | 13514 ft | 358 kts | 352° |
| 2026-04-26 14:20 | 37.65176 | 27.39383 | 13920 ft | 363 kts | 355° |
| 2026-04-26 14:20 | 37.67710 | 27.39177 | 14319 ft | 367 kts | 358° |
| 2026-04-26 14:20 | 37.70260 | 27.39061 | 14847 ft | 367 kts | 359° |
| 2026-04-26 14:21 | 37.72809 | 27.38981 | 15397 ft | 365 kts | 359° |
| 2026-04-26 14:21 | 37.75360 | 27.38904 | 15834 ft | 369 kts | 359° |
| 2026-04-26 14:21 | 37.77952 | 27.38817 | 16202 ft | 375 kts | 359° |
| 2026-04-26 14:21 | 37.80557 | 27.38716 | 16733 ft | 374 kts | 358° |
| 2026-04-26 14:22 | 37.83151 | 27.38608 | 17338 ft | 373 kts | 358° |
| 2026-04-26 14:22 | 37.85762 | 27.38493 | 17711 ft | 378 kts | 358° |
| 2026-04-26 14:22 | 37.88405 | 27.38372 | 18070 ft | 383 kts | 358° |
| 2026-04-26 14:22 | 37.91067 | 27.38247 | 18544 ft | 383 kts | 358° |
| 2026-04-26 14:23 | 37.93727 | 27.38124 | 19008 ft | 383 kts | 358° |
| 2026-04-26 14:23 | 37.96372 | 27.38001 | 19305 ft | 388 kts | 358° |
| 2026-04-26 14:23 | 37.99080 | 27.37876 | 19629 ft | 390 kts | 359° |
| 2026-04-26 14:23 | 38.01801 | 27.37751 | 20031 ft | 392 kts | 358° |
| 2026-04-26 14:24 | 38.04544 | 27.37625 | 20313 ft | 397 kts | 358° |
| 2026-04-26 14:24 | 38.07306 | 27.37498 | 20701 ft | 398 kts | 358° |
| 2026-04-26 14:24 | 38.10087 | 27.37370 | 21116 ft | 400 kts | 358° |
| 2026-04-26 14:24 | 38.12874 | 27.37241 | 21495 ft | 401 kts | 359° |
| 2026-04-26 14:25 | 38.15675 | 27.37112 | 21853 ft | 404 kts | 359° |
| 2026-04-26 14:25 | 38.18486 | 27.36983 | 22222 ft | 406 kts | 359° |
| 2026-04-26 14:25 | 38.21310 | 27.36853 | 22591 ft | 407 kts | 359° |
| 2026-04-26 14:25 | 38.24149 | 27.36722 | 22977 ft | 408 kts | 359° |
| 2026-04-26 14:26 | 38.27001 | 27.36591 | 23299 ft | 411 kts | 359° |
| 2026-04-26 14:26 | 38.29866 | 27.36459 | 23615 ft | 413 kts | 359° |
| 2026-04-26 14:26 | 38.32747 | 27.36325 | 23912 ft | 415 kts | 359° |
| 2026-04-26 14:26 | 38.35640 | 27.36191 | 24213 ft | 416 kts | 359° |
| 2026-04-26 14:27 | 38.38540 | 27.36057 | 24549 ft | 417 kts | 359° |
| 2026-04-26 14:27 | 38.41449 | 27.35922 | 24856 ft | 419 kts | 359° |
| 2026-04-26 14:27 | 38.44371 | 27.35787 | 25157 ft | 421 kts | 358° |
| 2026-04-26 14:27 | 38.47314 | 27.35651 | 25446 ft | 423 kts | 358° |
| 2026-04-26 14:28 | 38.50260 | 27.35514 | 25776 ft | 424 kts | 358° |
| 2026-04-26 14:28 | 38.53218 | 27.35377 | 26116 ft | 426 kts | 358° |
| 2026-04-26 14:28 | 38.56179 | 27.35238 | 26469 ft | 427 kts | 358° |
| 2026-04-26 14:28 | 38.59153 | 27.35100 | 26833 ft | 429 kts | 358° |
| 2026-04-26 14:29 | 38.62142 | 27.34961 | 27201 ft | 430 kts | 358° |
| 2026-04-26 14:29 | 38.65142 | 27.34821 | 27570 ft | 432 kts | 358° |
| 2026-04-26 14:29 | 38.68159 | 27.34680 | 27928 ft | 435 kts | 358° |
| 2026-04-26 14:29 | 38.71195 | 27.34538 | 28326 ft | 437 kts | 358° |
| 2026-04-26 14:30 | 38.74235 | 27.34396 | 28733 ft | 438 kts | 358° |
| 2026-04-26 14:30 | 38.77296 | 27.34253 | 29122 ft | 441 kts | 358° |
| 2026-04-26 14:30 | 38.80361 | 27.34109 | 29549 ft | 442 kts | 358° |
| 2026-04-26 14:30 | 38.83443 | 27.33965 | 29968 ft | 444 kts | 358° |
| 2026-04-26 14:31 | 38.86544 | 27.33820 | 30284 ft | 448 kts | 358° |
| 2026-04-26 14:31 | 38.89670 | 27.33673 | 30599 ft | 451 kts | 358° |
| 2026-04-26 14:31 | 38.92805 | 27.33525 | 30958 ft | 452 kts | 358° |
| 2026-04-26 14:31 | 38.95958 | 27.33377 | 31310 ft | 454 kts | 358° |
| 2026-04-26 14:32 | 38.99124 | 27.33228 | 31653 ft | 456 kts | 358° |
| 2026-04-26 14:32 | 39.02298 | 27.33078 | 31973 ft | 458 kts | 358° |
| 2026-04-26 14:32 | 39.05490 | 27.32927 | 32289 ft | 460 kts | 358° |
| 2026-04-26 14:32 | 39.08699 | 27.32776 | 32574 ft | 463 kts | 357° |
| 2026-04-26 14:33 | 39.11919 | 27.32624 | 32856 ft | 465 kts | 357° |
| 2026-04-26 14:33 | 39.15154 | 27.32471 | 33176 ft | 465 kts | 357° |
| 2026-04-26 14:33 | 39.18384 | 27.32318 | 33627 ft | 463 kts | 357° |
| 2026-04-26 14:33 | 39.21601 | 27.32166 | 34082 ft | 461 kts | 357° |
| 2026-04-26 14:34 | 39.24800 | 27.32014 | 34435 ft | 460 kts | 357° |
| 2026-04-26 14:34 | 39.28002 | 27.31862 | 34753 ft | 461 kts | 357° |
| 2026-04-26 14:34 | 39.31207 | 27.31710 | 35040 ft | 461 kts | 357° |
| 2026-04-26 14:34 | 39.34412 | 27.31557 | 35410 ft | 460 kts | 356° |
| 2026-04-26 14:35 | 39.37608 | 27.31405 | 35778 ft | 459 kts | 356° |
| 2026-04-26 14:35 | 39.40806 | 27.31253 | 35951 ft | 460 kts | 356° |
| 2026-04-26 14:35 | 39.44000 | 27.31100 | 35970 ft | 459 kts | 356° |
| 2026-04-26 14:36 | 39.50391 | 27.30795 | 35969 ft | 460 kts | 356° |
| 2026-04-26 14:36 | 39.56789 | 27.30489 | 35900 ft | 458 kts | 356° |
| 2026-04-26 14:36 | 39.59969 | 27.30337 | 35668 ft | 458 kts | 356° |
| 2026-04-26 14:37 | 39.63161 | 27.30183 | 35431 ft | 460 kts | 356° |
| 2026-04-26 14:37 | 39.66360 | 27.30029 | 35176 ft | 461 kts | 356° |
| 2026-04-26 14:37 | 39.69575 | 27.29875 | 34929 ft | 462 kts | 356° |
| 2026-04-26 14:37 | 39.72791 | 27.29721 | 34691 ft | 463 kts | 356° |
| 2026-04-26 14:38 | 39.76012 | 27.29566 | 34447 ft | 464 kts | 356° |
| 2026-04-26 14:38 | 39.79200 | 27.29412 | 34204 ft | 464 kts | 356° |
| 2026-04-26 14:38 | 39.82472 | 27.29254 | 33974 ft | 465 kts | 356° |
| 2026-04-26 14:38 | 39.84617 | 27.29151 | 33802 ft | 465 kts | 356° |
| 2026-04-26 14:39 | 39.88906 | 27.28944 | 33439 ft | 467 kts | 356° |
| 2026-04-26 14:39 | 39.92160 | 27.28786 | 33171 ft | 469 kts | 356° |
| 2026-04-26 14:39 | 39.95419 | 27.28628 | 32906 ft | 470 kts | 356° |
| 2026-04-26 14:39 | 39.98696 | 27.28469 | 32644 ft | 471 kts | 356° |
| 2026-04-26 14:40 | 40.01972 | 27.28310 | 32386 ft | 472 kts | 356° |
| 2026-04-26 14:40 | 40.05257 | 27.28151 | 32128 ft | 472 kts | 356° |
| 2026-04-26 14:40 | 40.08545 | 27.27992 | 31878 ft | 473 kts | 356° |
| 2026-04-26 14:40 | 40.11837 | 27.27832 | 31390 ft | 472 kts | 356° |
| 2026-04-26 14:41 | 40.15126 | 27.27671 | 30483 ft | 473 kts | 356° |
| 2026-04-26 14:41 | 40.18431 | 27.27560 | 29477 ft | 476 kts | 359° |
| 2026-04-26 14:41 | 40.21736 | 27.27710 | 28664 ft | 473 kts | 1° |
| 2026-04-26 14:41 | 40.25006 | 27.27928 | 27956 ft | 468 kts | 1° |
| 2026-04-26 14:42 | 40.28240 | 27.28151 | 27549 ft | 457 kts | 1° |
| 2026-04-26 14:42 | 40.31322 | 27.28366 | 27398 ft | 434 kts | 1° |
| 2026-04-26 14:42 | 40.34294 | 27.28572 | 27271 ft | 420 kts | 1° |
| 2026-04-26 14:42 | 40.37171 | 27.28770 | 27134 ft | 407 kts | 1° |
| 2026-04-26 14:43 | 40.39953 | 27.28961 | 26984 ft | 395 kts | 1° |
| 2026-04-26 14:43 | 40.42657 | 27.29146 | 26797 ft | 384 kts | 1° |
| 2026-04-26 14:43 | 40.45321 | 27.29328 | 26265 ft | 383 kts | 1° |
| 2026-04-26 14:43 | 40.47982 | 27.29509 | 25772 ft | 382 kts | 1° |
| 2026-04-26 14:44 | 40.50646 | 27.29695 | 25479 ft | 389 kts | 1° |
| 2026-04-26 14:44 | 40.53381 | 27.29879 | 25196 ft | 395 kts | 1° |
| 2026-04-26 14:44 | 40.56132 | 27.30066 | 24863 ft | 396 kts | 1° |
| 2026-04-26 14:44 | 40.58879 | 27.30255 | 24541 ft | 394 kts | 1° |
| 2026-04-26 14:45 | 40.61619 | 27.30443 | 24222 ft | 393 kts | 1° |
| 2026-04-26 14:45 | 40.63422 | 27.30567 | 24020 ft | 392 kts | 1° |
| 2026-04-26 14:45 | 40.67055 | 27.30818 | 23611 ft | 390 kts | 1° |
| 2026-04-26 14:45 | 40.69755 | 27.31004 | 23246 ft | 388 kts | 1° |
| 2026-04-26 14:46 | 40.72445 | 27.31081 | 22939 ft | 385 kts | 355° |
| 2026-04-26 14:46 | 40.75058 | 27.30477 | 22743 ft | 382 kts | 343° |
| 2026-04-26 14:46 | 40.77742 | 27.30117 | 22735 ft | 390 kts | 1° |
| 2026-04-26 14:46 | 40.80335 | 27.30794 | 22730 ft | 385 kts | 17° |
| 2026-04-26 14:47 | 40.82733 | 27.32392 | 22728 ft | 390 kts | 32° |
| 2026-04-26 14:47 | 40.84762 | 27.34791 | 22553 ft | 394 kts | 45° |
| 2026-04-26 14:47 | 40.86552 | 27.37539 | 22285 ft | 394 kts | 47° |
| 2026-04-26 14:47 | 40.88307 | 27.40324 | 22014 ft | 394 kts | 47° |
| 2026-04-26 14:48 | 40.90061 | 27.43091 | 21761 ft | 392 kts | 47° |
| 2026-04-26 14:48 | 40.91813 | 27.45840 | 21515 ft | 390 kts | 47° |
| 2026-04-26 14:48 | 40.93561 | 27.48571 | 21249 ft | 389 kts | 47° |
| 2026-04-26 14:48 | 40.95310 | 27.51300 | 20987 ft | 387 kts | 47° |
| 2026-04-26 14:49 | 40.97048 | 27.54010 | 20736 ft | 386 kts | 47° |
| 2026-04-26 14:49 | 40.98777 | 27.56708 | 20490 ft | 384 kts | 47° |
| 2026-04-26 14:49 | 41.00507 | 27.59407 | 20234 ft | 383 kts | 47° |
| 2026-04-26 14:49 | 41.02226 | 27.62091 | 19985 ft | 382 kts | 47° |
| 2026-04-26 14:50 | 41.03942 | 27.64771 | 19747 ft | 380 kts | 47° |
| 2026-04-26 14:50 | 41.05650 | 27.67443 | 19515 ft | 379 kts | 47° |
| 2026-04-26 14:50 | 41.07350 | 27.70104 | 19266 ft | 378 kts | 47° |
| 2026-04-26 14:50 | 41.09046 | 27.72760 | 19032 ft | 376 kts | 47° |
| 2026-04-26 14:51 | 41.10733 | 27.75404 | 18800 ft | 375 kts | 47° |
| 2026-04-26 14:51 | 41.12412 | 27.78040 | 18567 ft | 373 kts | 47° |
| 2026-04-26 14:51 | 41.14087 | 27.80670 | 18334 ft | 373 kts | 47° |
| 2026-04-26 14:51 | 41.15757 | 27.83294 | 18078 ft | 371 kts | 47° |
| 2026-04-26 14:52 | 41.17419 | 27.85910 | 17811 ft | 370 kts | 47° |
| 2026-04-26 14:52 | 41.19075 | 27.88517 | 17543 ft | 368 kts | 47° |
| 2026-04-26 14:52 | 41.20719 | 27.91107 | 17284 ft | 367 kts | 47° |
| 2026-04-26 14:52 | 41.22360 | 27.93696 | 17023 ft | 365 kts | 47° |
| 2026-04-26 14:53 | 41.23990 | 27.96268 | 16745 ft | 364 kts | 47° |
| 2026-04-26 14:53 | 41.25615 | 27.98834 | 16266 ft | 362 kts | 47° |
| 2026-04-26 14:53 | 41.27235 | 28.01396 | 15680 ft | 361 kts | 47° |
| 2026-04-26 14:53 | 41.28843 | 28.03942 | 15142 ft | 359 kts | 47° |
| 2026-04-26 14:54 | 41.30443 | 28.06478 | 14642 ft | 356 kts | 47° |
| 2026-04-26 14:54 | 41.32029 | 28.08992 | 14153 ft | 353 kts | 47° |
| 2026-04-26 14:54 | 41.33599 | 28.11483 | 13653 ft | 350 kts | 47° |
| 2026-04-26 14:54 | 41.35161 | 28.13964 | 13096 ft | 347 kts | 47° |
| 2026-04-26 14:55 | 41.36704 | 28.16415 | 12542 ft | 345 kts | 47° |
| 2026-04-26 14:55 | 41.38235 | 28.18850 | 11991 ft | 341 kts | 47° |
| 2026-04-26 14:55 | 41.39727 | 28.21229 | 11490 ft | 324 kts | 47° |
| 2026-04-26 14:55 | 41.41117 | 28.23453 | 11220 ft | 301 kts | 47° |
| 2026-04-26 14:56 | 41.42406 | 28.25513 | 11047 ft | 279 kts | 47° |
| 2026-04-26 14:56 | 41.43643 | 28.27484 | 10921 ft | 276 kts | 46° |
| 2026-04-26 14:56 | 41.44866 | 28.29433 | 10798 ft | 273 kts | 46° |
| 2026-04-26 14:56 | 41.46084 | 28.31374 | 10673 ft | 273 kts | 47° |
| 2026-04-26 14:57 | 41.47300 | 28.33313 | 10549 ft | 272 kts | 46° |
| 2026-04-26 14:57 | 41.48514 | 28.35252 | 10433 ft | 272 kts | 46° |
| 2026-04-26 14:57 | 41.49724 | 28.37188 | 10131 ft | 271 kts | 47° |
| 2026-04-26 14:57 | 41.50927 | 28.39115 | 9799 ft | 274 kts | 46° |
| 2026-04-26 14:58 | 41.52184 | 28.41121 | 9649 ft | 287 kts | 46° |
| 2026-04-26 14:58 | 41.53442 | 28.43141 | 9521 ft | 275 kts | 47° |
| 2026-04-26 14:58 | 41.54625 | 28.45050 | 9275 ft | 260 kts | 46° |
| 2026-04-26 14:58 | 41.55376 | 28.46259 | 9128 ft | 252 kts | 46° |
| 2026-04-26 14:59 | 41.56534 | 28.48012 | 8894 ft | 250 kts | 39° |
| 2026-04-26 14:59 | 41.57919 | 28.49376 | 8629 ft | 246 kts | 28° |
| 2026-04-26 14:59 | 41.59381 | 28.50570 | 8365 ft | 246 kts | 27° |
| 2026-04-26 14:59 | 41.60352 | 28.51347 | 8197 ft | 245 kts | 27° |
| 2026-04-26 15:00 | 41.62306 | 28.52914 | 7844 ft | 244 kts | 27° |
| 2026-04-26 15:00 | 41.63714 | 28.54181 | 7579 ft | 247 kts | 37° |
| 2026-04-26 15:00 | 41.64693 | 28.56065 | 7310 ft | 253 kts | 68° |
| 2026-04-26 15:00 | 41.64816 | 28.58413 | 7058 ft | 256 kts | 96° |
| 2026-04-26 15:01 | 41.64499 | 28.60722 | 6906 ft | 250 kts | 99° |
| 2026-04-26 15:01 | 41.64144 | 28.62977 | 6662 ft | 247 kts | 99° |
| 2026-04-26 15:01 | 41.63796 | 28.65233 | 6416 ft | 247 kts | 99° |
| 2026-04-26 15:01 | 41.63392 | 28.67459 | 6161 ft | 247 kts | 108° |
| 2026-04-26 15:02 | 41.62429 | 28.69328 | 5958 ft | 245 kts | 142° |
| 2026-04-26 15:02 | 41.61062 | 28.70565 | 5886 ft | 231 kts | 151° |
| 2026-04-26 15:02 | 41.59696 | 28.71575 | 5799 ft | 219 kts | 158° |
| 2026-04-26 15:02 | 41.58295 | 28.72059 | 5724 ft | 199 kts | 181° |
| 2026-04-26 15:03 | 41.56960 | 28.72077 | 5605 ft | 186 kts | 185° |
| 2026-04-26 15:03 | 41.55681 | 28.72081 | 5367 ft | 182 kts | 184° |
| 2026-04-26 15:03 | 41.54425 | 28.72119 | 5109 ft | 180 kts | 184° |
| 2026-04-26 15:03 | 41.53181 | 28.72151 | 4834 ft | 178 kts | 184° |
| 2026-04-26 15:04 | 41.51950 | 28.72178 | 4562 ft | 176 kts | 184° |
| 2026-04-26 15:04 | 41.50733 | 28.72207 | 4296 ft | 173 kts | 184° |
| 2026-04-26 15:04 | 41.49543 | 28.72236 | 4065 ft | 169 kts | 184° |
| 2026-04-26 15:04 | 41.48387 | 28.72263 | 3853 ft | 163 kts | 184° |
| 2026-04-26 15:05 | 41.47260 | 28.72289 | 3653 ft | 161 kts | 185° |
| 2026-04-26 15:05 | 41.46519 | 28.72306 | 3512 ft | 160 kts | 185° |
| 2026-04-26 15:05 | 41.45037 | 28.72341 | 3227 ft | 158 kts | 185° |
| 2026-04-26 15:05 | 41.43957 | 28.72367 | 3016 ft | 151 kts | 185° |
| 2026-04-26 15:06 | 41.42936 | 28.72391 | 2809 ft | 143 kts | 185° |
| 2026-04-26 15:06 | 41.41945 | 28.72414 | 2648 ft | 142 kts | 185° |
| 2026-04-26 15:06 | 41.40964 | 28.72436 | 2455 ft | 141 kts | 185° |
| 2026-04-26 15:06 | 41.39990 | 28.72458 | 2276 ft | 139 kts | 185° |
| 2026-04-26 15:07 | 41.38063 | 28.72502 | 1906 ft | 137 kts | 184° |
| 2026-04-26 15:07 | 41.37131 | 28.72525 | 1717 ft | 133 kts | 184° |
| 2026-04-26 15:07 | 41.36198 | 28.72546 | 1553 ft | 132 kts | 184° |
| 2026-04-26 15:08 | 41.35274 | 28.72567 | 1381 ft | 133 kts | 185° |
| 2026-04-26 15:08 | 41.34352 | 28.72588 | 1198 ft | 131 kts | 185° |
| 2026-04-26 15:08 | 41.33463 | 28.72609 | 1042 ft | 128 kts | 183° |
| 2026-04-26 15:08 | 41.32578 | 28.72632 | 876 ft | 127 kts | 182° |
| 2026-04-26 15:09 | 41.31697 | 28.72654 | 678 ft | 125 kts | 181° |
| 2026-04-26 15:09 | 41.30807 | 28.72673 | 547 ft | 131 kts | 182° |
| 2026-04-26 15:09 | 41.29913 | 28.72688 | 407 ft | 127 kts | 182° |
| 2026-04-26 15:09 | 41.29042 | 28.72714 | 361 ft | 118 kts | 183° |
| 2026-04-26 15:10 | 41.28226 | 28.72729 | 433 ft | 136 kts | 185° |
| 2026-04-26 15:10 | 41.27552 | 28.72719 | 562 ft | 153 kts | 182° |
| 2026-04-26 15:10 | 41.26021 | 28.72766 | 995 ft | 170 kts | 182° |
| 2026-04-26 15:10 | 41.24828 | 28.72797 | 1528 ft | 172 kts | 184° |
| 2026-04-26 15:11 | 41.23545 | 28.72815 | 1799 ft | 201 kts | 183° |
| 2026-04-26 15:11 | 41.22040 | 28.72719 | 2161 ft | 228 kts | 194° |
| 2026-04-26 15:11 | 41.20643 | 28.71719 | 2865 ft | 232 kts | 228° |
| 2026-04-26 15:11 | 41.19861 | 28.69895 | 3810 ft | 228 kts | 257° |
| 2026-04-26 15:12 | 41.19577 | 28.67823 | 4538 ft | 231 kts | 265° |
| 2026-04-26 15:12 | 41.19390 | 28.65693 | 4909 ft | 233 kts | 266° |
| 2026-04-26 15:12 | 41.19206 | 28.63554 | 4994 ft | 233 kts | 266° |
| 2026-04-26 15:12 | 41.19019 | 28.61410 | 4999 ft | 235 kts | 266° |
| 2026-04-26 15:13 | 41.18834 | 28.59255 | 5010 ft | 234 kts | 266° |
| 2026-04-26 15:13 | 41.18654 | 28.57134 | 4997 ft | 234 kts | 265° |
| 2026-04-26 15:13 | 41.18478 | 28.54977 | 5002 ft | 235 kts | 266° |
| 2026-04-26 15:13 | 41.18293 | 28.52825 | 5000 ft | 235 kts | 266° |
| 2026-04-26 15:14 | 41.18277 | 28.50609 | 4995 ft | 247 kts | 279° |
| 2026-04-26 15:14 | 41.18833 | 28.48439 | 5002 ft | 252 kts | 301° |
| 2026-04-26 15:14 | 41.20081 | 28.46818 | 5006 ft | 255 kts | 329° |
| 2026-04-26 15:14 | 41.21805 | 28.46244 | 5004 ft | 261 kts | 355° |
| 2026-04-26 15:15 | 41.23589 | 28.45906 | 5012 ft | 258 kts | 339° |
| 2026-04-26 15:15 | 41.25301 | 28.45183 | 5002 ft | 259 kts | 340° |
| 2026-04-26 15:15 | 41.27022 | 28.44502 | 5004 ft | 258 kts | 341° |
| 2026-04-26 15:15 | 41.28791 | 28.44070 | 5002 ft | 260 kts | 353° |
| 2026-04-26 15:16 | 41.30605 | 28.44131 | 5005 ft | 262 kts | 1° |
| 2026-04-26 15:16 | 41.32427 | 28.44360 | 5008 ft | 263 kts | 2° |
| 2026-04-26 15:16 | 41.34246 | 28.44632 | 4995 ft | 261 kts | 3° |
| 2026-04-26 15:16 | 41.35983 | 28.44911 | 5017 ft | 242 kts | 3° |
| 2026-04-26 15:17 | 41.37616 | 28.45177 | 5017 ft | 233 kts | 2° |
| 2026-04-26 15:17 | 41.38677 | 28.45349 | 5007 ft | 232 kts | 3° |
| 2026-04-26 15:17 | 41.40820 | 28.45698 | 5006 ft | 232 kts | 2° |
| 2026-04-26 15:17 | 41.42426 | 28.45963 | 5004 ft | 233 kts | 2° |
| 2026-04-26 15:18 | 41.44031 | 28.46227 | 4997 ft | 232 kts | 3° |
| 2026-04-26 15:18 | 41.45579 | 28.46487 | 5010 ft | 217 kts | 3° |
| 2026-04-26 15:18 | 41.47055 | 28.46735 | 5007 ft | 213 kts | 3° |
| 2026-04-26 15:18 | 41.48523 | 28.46979 | 5000 ft | 213 kts | 2° |
| 2026-04-26 15:19 | 41.49992 | 28.47222 | 4999 ft | 213 kts | 2° |
| 2026-04-26 15:19 | 41.51462 | 28.47465 | 5005 ft | 212 kts | 3° |
| 2026-04-26 15:19 | 41.52925 | 28.47708 | 4999 ft | 212 kts | 3° |
| 2026-04-26 15:19 | 41.54389 | 28.47952 | 5042 ft | 212 kts | 3° |
| 2026-04-26 15:20 | 41.55831 | 28.48205 | 5051 ft | 212 kts | 5° |
| 2026-04-26 15:20 | 41.57246 | 28.48816 | 5058 ft | 216 kts | 22° |
| 2026-04-26 15:20 | 41.58561 | 28.49808 | 5056 ft | 218 kts | 27° |
| 2026-04-26 15:20 | 41.59853 | 28.50869 | 5054 ft | 218 kts | 27° |
| 2026-04-26 15:21 | 41.61145 | 28.51933 | 5052 ft | 218 kts | 27° |
| 2026-04-26 15:21 | 41.62439 | 28.52994 | 5052 ft | 218 kts | 27° |
| 2026-04-26 15:21 | 41.63656 | 28.54192 | 5056 ft | 214 kts | 40° |
| 2026-04-26 15:21 | 41.64479 | 28.55771 | 5066 ft | 205 kts | 62° |
| 2026-04-26 15:22 | 41.64794 | 28.57634 | 5058 ft | 209 kts | 86° |
| 2026-04-26 15:22 | 41.64645 | 28.59568 | 5057 ft | 210 kts | 99° |
| 2026-04-26 15:22 | 41.64369 | 28.61417 | 5051 ft | 195 kts | 101° |
| 2026-04-26 15:22 | 41.64097 | 28.63162 | 5059 ft | 190 kts | 100° |
| 2026-04-26 15:23 | 41.63834 | 28.64891 | 5037 ft | 191 kts | 99° |
| 2026-04-26 15:23 | 41.63566 | 28.66731 | 4639 ft | 216 kts | 99° |
| 2026-04-26 15:23 | 41.63293 | 28.68798 | 4434 ft | 229 kts | 99° |
| 2026-04-26 15:23 | 41.63066 | 28.70820 | 4811 ft | 209 kts | 97° |
| 2026-04-26 15:24 | 41.62890 | 28.72682 | 4982 ft | 201 kts | 95° |